Time;durP1;ratioP1;P1;durP2;ratioP2;P2;SDS_P1;SDS_P2;PMS_P1;PMS_P2;Temp;Humidity;BMP_temperature;BMP_pressure;BME280_temperature;BME280_humidity;BME280_pressure;Samples;Min_cycle;Max_cycle;Signal;HPM_P1;HPM_P2
2023/04/30 00:02:07;;;;;;;10.27;3.30;;;;;;;;;;5004659;28;20122;-79
2023/04/30 00:04:33;;;;;;;5.88;3.22;;;;;;;;;;5015289;28;20032;-79
2023/04/30 00:07:01;;;;;;;10.63;3.33;;;;;;;;;;5015556;28;20026;-79
2023/04/30 00:09:27;;;;;;;7.13;3.40;;;;;;;;;;5002525;28;20121;-79
2023/04/30 00:14:55;;;;;;;9.05;3.40;;;;;;;;;;4995798;28;20129;-79
2023/04/30 00:17:22;;;;;;;5.88;3.63;;;;;;;;;;4995821;28;20532;-79
2023/04/30 00:19:49;;;;;;;10.10;3.40;;;;;;;;;;5001905;28;20109;-79
2023/04/30 00:22:15;;;;;;;5.72;3.28;;;;;;;;;;5015507;28;20030;-79
2023/04/30 00:24:54;;;;;;;6.03;3.20;;;;;;;;;;5013787;28;20044;-79
2023/04/30 00:27:20;;;;;;;8.77;3.33;;;;;;;;;;5014604;28;20037;-79
2023/04/30 00:29:51;;;;;;;6.82;3.30;;;;;;;;;;5013518;28;20400;-79
2023/04/30 00:32:31;;;;;;;8.27;3.75;;;;;;;;;;5014707;28;20105;-79
2023/04/30 00:34:57;;;;;;;9.68;3.53;;;;;;;;;;5014732;28;20021;-78
2023/04/30 00:37:23;;;;;;;9.38;3.55;;;;;;;;;;5022847;28;20519;-79
2023/04/30 00:39:49;;;;;;;9.00;3.63;;;;;;;;;;5020168;28;20072;-78
2023/04/30 00:42:20;;;;;;;7.38;3.90;;;;;;;;;;5038127;28;20036;-78
2023/04/30 00:44:46;;;;;;;7.90;4.10;;;;;;;;;;5019845;28;20034;-79
2023/04/30 00:47:11;;;;;;;10.27;4.32;;;;;;;;;;5012264;28;20034;-79
2023/04/30 00:55:55;;;;;;;6.18;3.88;;;;;;;;;;5038109;28;20478;-78
2023/04/30 00:58:25;;;;;;;8.63;4.32;;;;;;;;;;5037918;28;20097;-78
2023/04/30 01:00:51;;;;;;;9.55;4.32;;;;;;;;;;5037377;28;20030;-79
2023/04/30 01:03:19;;;;;;;8.32;3.90;;;;;;;;;;5037627;28;20128;-79
2023/04/30 01:05:45;;;;;;;7.15;3.58;;;;;;;;;;5019574;28;20060;-79
2023/04/30 01:08:30;;;;;;;10.48;4.25;;;;;;;;;;5037302;28;20029;-79
2023/04/30 01:11:09;;;;;;;8.93;3.67;;;;;;;;;;5037999;28;20021;-78
2023/04/30 01:13:39;;;;;;;8.82;4.38;;;;;;;;;;5029358;28;20035;-79
2023/04/30 01:16:25;;;;;;;8.95;4.25;;;;;;;;;;5037928;28;20029;-79
2023/04/30 01:18:57;;;;;;;8.23;3.83;;;;;;;;;;5037918;28;20092;-78
2023/04/30 01:21:24;;;;;;;6.28;3.78;;;;;;;;;;5037942;28;20087;-78
2023/04/30 01:23:56;;;;;;;6.75;3.85;;;;;;;;;;5038444;28;20022;-79
2023/04/30 01:26:25;;;;;;;7.47;4.20;;;;;;;;;;5037698;28;20109;-79
2023/04/30 01:28:52;;;;;;;10.88;4.30;;;;;;;;;;5037905;28;20384;-79
2023/04/30 01:31:19;;;;;;;7.20;4.57;;;;;;;;;;5032883;28;20026;-79
2023/04/30 01:33:45;;;;;;;9.25;3.90;;;;;;;;;;5018364;28;20022;-79
2023/04/30 01:36:30;;;;;;;9.27;4.22;;;;;;;;;;5017952;28;20037;-79
2023/04/30 01:39:25;;;;;;;6.53;3.95;;;;;;;;;;5001706;28;20049;-79
2023/04/30 01:41:51;;;;;;;8.98;4.18;;;;;;;;;;5037794;28;20034;-78
2023/04/30 01:44:20;;;;;;;13.18;4.57;;;;;;;;;;5038026;28;20033;-79
2023/04/30 01:46:55;;;;;;;12.68;4.32;;;;;;;;;;5020019;28;20036;-79
2023/04/30 01:49:27;;;;;;;9.93;4.38;;;;;;;;;;5037229;28;20036;-79
2023/04/30 01:51:57;;;;;;;16.98;4.03;;;;;;;;;;5038271;28;20057;-79
2023/04/30 01:54:31;;;;;;;8.57;3.80;;;;;;;;;;5038150;28;20040;-79
2023/04/30 01:57:03;;;;;;;7.90;3.60;;;;;;;;;;5038808;28;20037;-79
2023/04/30 01:59:29;;;;;;;7.32;4.13;;;;;;;;;;5038912;28;20025;-79
2023/04/30 02:01:55;;;;;;;10.80;3.83;;;;;;;;;;5022461;28;20037;-79
2023/04/30 02:04:21;;;;;;;8.02;3.90;;;;;;;;;;5018745;28;20109;-78
2023/04/30 02:06:47;;;;;;;9.75;4.07;;;;;;;;;;5018621;28;20060;-79
2023/04/30 02:09:13;;;;;;;7.80;4.43;;;;;;;;;;5019169;28;20763;-79
2023/04/30 02:11:40;;;;;;;10.80;4.63;;;;;;;;;;5019410;28;20030;-79
2023/04/30 02:14:06;;;;;;;9.07;4.43;;;;;;;;;;5036858;28;20040;-78
2023/04/30 02:16:38;;;;;;;8.77;4.20;;;;;;;;;;5039117;28;20033;-79
2023/04/30 02:19:04;;;;;;;12.18;4.70;;;;;;;;;;5039359;28;20037;-78
2023/04/30 02:21:30;;;;;;;10.88;4.50;;;;;;;;;;5018577;28;20038;-78
2023/04/30 02:23:56;;;;;;;7.20;4.50;;;;;;;;;;5017939;28;20030;-78
2023/04/30 02:26:22;;;;;;;9.77;4.40;;;;;;;;;;5016011;28;20101;-78
2023/04/30 02:29:02;;;;;;;6.13;4.18;;;;;;;;;;5015699;28;20054;-78
2023/04/30 02:31:28;;;;;;;9.02;4.38;;;;;;;;;;5015775;28;20065;-79
2023/04/30 02:33:53;;;;;;;6.93;3.55;;;;;;;;;;4997878;28;20701;-79
2023/04/30 02:36:35;;;;;;;11.15;4.90;;;;;;;;;;5015462;28;20018;-78
2023/04/30 02:39:02;;;;;;;9.10;3.85;;;;;;;;;;4997676;28;20092;-78
2023/04/30 02:44:40;;;;;;;8.65;4.32;;;;;;;;;;5015369;28;20033;-79
2023/04/30 02:50:15;;;;;;;8.02;4.22;;;;;;;;;;5015311;28;20025;-79
2023/04/30 02:52:42;;;;;;;9.80;5.30;;;;;;;;;;5015041;28;20025;-78
2023/04/30 02:55:43;;;;;;;10.15;4.97;;;;;;;;;;5015062;28;20033;-78
2023/04/30 02:58:09;;;;;;;10.63;4.53;;;;;;;;;;5015092;28;20037;-78
2023/04/30 03:00:42;;;;;;;10.40;4.85;;;;;;;;;;5014765;28;20021;-78
2023/04/30 03:03:35;;;;;;;9.57;5.45;;;;;;;;;;5034837;28;20038;-79
2023/04/30 03:06:01;;;;;;;14.82;6.75;;;;;;;;;;5035716;28;20025;-78
2023/04/30 03:08:27;;;;;;;10.02;4.90;;;;;;;;;;5035739;28;20026;-79
2023/04/30 03:10:53;;;;;;;13.18;5.13;;;;;;;;;;5017188;28;20029;-79
2023/04/30 03:13:19;;;;;;;10.68;4.72;;;;;;;;;;5035192;28;20032;-79
2023/04/30 03:15:45;;;;;;;11.25;5.32;;;;;;;;;;5035455;28;20104;-79
2023/04/30 03:18:11;;;;;;;10.40;4.57;;;;;;;;;;5017623;28;20060;-78
2023/04/30 03:20:56;;;;;;;10.40;5.20;;;;;;;;;;5035207;28;20116;-78
2023/04/30 03:23:22;;;;;;;8.30;4.32;;;;;;;;;;5034782;28;20479;-78
2023/04/30 03:25:57;;;;;;;8.73;4.03;;;;;;;;;;5017362;28;20044;-78
2023/04/30 03:28:23;;;;;;;6.70;4.50;;;;;;;;;;5017445;28;20111;-78
2023/04/30 03:30:50;;;;;;;10.15;4.15;;;;;;;;;;5017325;28;20053;-78
2023/04/30 03:33:45;;;;;;;8.98;3.88;;;;;;;;;;5034842;28;20032;-79
2023/04/30 03:36:11;;;;;;;5.82;3.58;;;;;;;;;;5034919;28;20030;-78
2023/04/30 03:38:41;;;;;;;8.30;3.80;;;;;;;;;;5033917;28;20508;-78
2023/04/30 03:41:07;;;;;;;7.78;3.45;;;;;;;;;;5034800;28;20091;-78
2023/04/30 03:43:51;;;;;;;6.88;4.20;;;;;;;;;;5017104;28;20099;-79
2023/04/30 03:46:30;;;;;;;7.28;4.35;;;;;;;;;;5034990;28;20025;-79
2023/04/30 03:48:56;;;;;;;8.57;4.10;;;;;;;;;;5017162;28;20388;-78
2023/04/30 03:51:22;;;;;;;10.48;3.85;;;;;;;;;;4996882;28;20022;-79
2023/04/30 03:53:48;;;;;;;11.38;4.53;;;;;;;;;;5014935;28;20025;-78
2023/04/30 03:56:17;;;;;;;5.68;4.07;;;;;;;;;;5014404;28;20362;-78
2023/04/30 03:58:44;;;;;;;7.15;4.05;;;;;;;;;;5013923;28;20030;-78
2023/04/30 04:01:10;;;;;;;8.85;4.75;;;;;;;;;;5013680;28;20089;-78
2023/04/30 04:03:36;;;;;;;7.47;4.20;;;;;;;;;;5013396;28;20065;-78
2023/04/30 04:06:04;;;;;;;8.68;4.63;;;;;;;;;;5013915;28;20049;-78
2023/04/30 04:08:31;;;;;;;7.38;4.28;;;;;;;;;;5013538;28;20018;-78
2023/04/30 04:11:19;;;;;;;13.02;4.63;;;;;;;;;;5022189;28;20022;-78
2023/04/30 04:13:45;;;;;;;12.50;4.43;;;;;;;;;;5037129;28;20521;-78
2023/04/30 04:16:17;;;;;;;8.07;4.10;;;;;;;;;;5041239;28;20025;-79
2023/04/30 04:18:43;;;;;;;11.25;4.85;;;;;;;;;;5037063;28;20029;-78
2023/04/30 04:21:09;;;;;;;8.48;4.22;;;;;;;;;;5037339;28;20026;-78
2023/04/30 04:23:36;;;;;;;10.05;4.40;;;;;;;;;;5037095;28;20032;-78
2023/04/30 04:26:02;;;;;;;12.55;4.63;;;;;;;;;;5037957;28;20704;-78
2023/04/30 04:28:28;;;;;;;7.22;4.70;;;;;;;;;;5037894;28;20108;-78
2023/04/30 04:30:54;;;;;;;11.52;4.85;;;;;;;;;;5038124;28;20105;-78
2023/04/30 04:33:20;;;;;;;8.35;4.85;;;;;;;;;;5038044;28;20188;-78
2023/04/30 04:35:56;;;;;;;9.55;5.00;;;;;;;;;;5037321;28;20653;-78
2023/04/30 04:38:35;;;;;;;9.95;5.50;;;;;;;;;;5035993;28;20041;-78
2023/04/30 04:41:08;;;;;;;8.60;4.88;;;;;;;;;;5038480;28;20033;-78
2023/04/30 04:43:37;;;;;;;10.00;4.75;;;;;;;;;;5016843;28;20042;-78
2023/04/30 04:46:04;;;;;;;11.55;4.70;;;;;;;;;;5016902;28;20107;-78
2023/04/30 04:48:30;;;;;;;10.65;5.22;;;;;;;;;;5030282;28;20053;-79
2023/04/30 04:53:59;;;;;;;9.93;5.00;;;;;;;;;;5018049;28;20057;-78
2023/04/30 04:56:25;;;;;;;12.38;5.03;;;;;;;;;;5000294;28;21919;-78
2023/04/30 04:58:51;;;;;;;12.30;5.70;;;;;;;;;;5017207;28;20029;-78
2023/04/30 05:01:17;;;;;;;12.10;5.22;;;;;;;;;;5034827;28;20373;-78
2023/04/30 05:03:46;;;;;;;10.20;4.93;;;;;;;;;;5038516;28;20083;-78
2023/04/30 05:06:12;;;;;;;11.30;4.97;;;;;;;;;;5022841;28;20140;-78
2023/04/30 05:08:38;;;;;;;10.82;5.40;;;;;;;;;;5018944;28;20066;-78
2023/04/30 05:11:04;;;;;;;13.15;5.75;;;;;;;;;;5020032;28;20576;-78
2023/04/30 05:13:30;;;;;;;11.68;5.00;;;;;;;;;;5018604;28;20061;-78
2023/04/30 05:15:56;;;;;;;13.52;5.45;;;;;;;;;;5016594;28;20089;-78
2023/04/30 05:18:22;;;;;;;13.65;5.60;;;;;;;;;;5015717;28;20026;-76
2023/04/30 05:20:48;;;;;;;11.02;5.78;;;;;;;;;;5015352;28;20030;-77
2023/04/30 05:23:14;;;;;;;19.30;6.55;;;;;;;;;;5015161;28;20034;-76
2023/04/30 05:25:40;;;;;;;17.48;6.65;;;;;;;;;;5014159;28;20022;-76
2023/04/30 05:28:06;;;;;;;13.77;5.80;;;;;;;;;;5015131;28;20022;-76
2023/04/30 05:30:32;;;;;;;9.75;5.13;;;;;;;;;;5015471;28;20465;-76
2023/04/30 05:32:58;;;;;;;8.68;4.53;;;;;;;;;;5015174;28;20087;-77
2023/04/30 05:35:25;;;;;;;6.53;3.70;;;;;;;;;;5014813;28;20442;-77
2023/04/30 05:37:52;;;;;;;7.78;3.63;;;;;;;;;;5014609;28;20425;-77
2023/04/30 05:40:18;;;;;;;8.38;3.20;;;;;;;;;;5015091;28;20050;-77
2023/04/30 05:42:44;;;;;;;7.47;3.42;;;;;;;;;;5014784;28;20030;-77
2023/04/30 05:45:11;;;;;;;5.00;3.20;;;;;;;;;;5014778;28;20350;-77
2023/04/30 05:47:37;;;;;;;6.88;3.20;;;;;;;;;;5014716;28;20025;-77
2023/04/30 05:50:03;;;;;;;6.47;2.78;;;;;;;;;;5014651;28;20026;-77
2023/04/30 05:52:29;;;;;;;5.72;3.03;;;;;;;;;;5014844;28;20030;-77
2023/04/30 05:54:55;;;;;;;6.75;2.90;;;;;;;;;;5014636;28;20026;-77
2023/04/30 05:57:21;;;;;;;4.63;2.90;;;;;;;;;;5014542;28;20544;-77
2023/04/30 05:59:47;;;;;;;9.27;2.90;;;;;;;;;;5014762;28;20018;-77
2023/04/30 06:02:13;;;;;;;4.43;2.45;;;;;;;;;;4996742;28;20057;-77
2023/04/30 06:04:39;;;;;;;6.93;2.30;;;;;;;;;;5014880;28;20384;-77
2023/04/30 06:07:05;;;;;;;6.03;2.45;;;;;;;;;;5014644;28;20036;-77
2023/04/30 06:09:31;;;;;;;6.63;2.08;;;;;;;;;;5014254;28;20018;-77
2023/04/30 06:11:57;;;;;;;4.13;2.17;;;;;;;;;;5014177;28;20037;-77
2023/04/30 06:14:23;;;;;;;10.02;2.58;;;;;;;;;;5013887;28;20036;-77
2023/04/30 06:16:49;;;;;;;5.75;2.47;;;;;;;;;;5013390;28;20026;-77
2023/04/30 06:19:18;;;;;;;6.80;2.95;;;;;;;;;;5013572;28;20515;-77
2023/04/30 06:21:45;;;;;;;6.57;2.38;;;;;;;;;;5013071;28;20037;-77
2023/04/30 06:24:11;;;;;;;5.07;2.30;;;;;;;;;;5013188;28;20079;-77
2023/04/30 06:26:37;;;;;;;4.35;2.20;;;;;;;;;;5012977;28;20101;-77
2023/04/30 06:29:03;;;;;;;5.72;2.20;;;;;;;;;;5013640;28;20500;-77
2023/04/30 06:31:29;;;;;;;4.90;2.47;;;;;;;;;;5014091;28;20033;-77
2023/04/30 06:33:55;;;;;;;5.03;2.22;;;;;;;;;;5013872;28;20022;-77
2023/04/30 06:36:21;;;;;;;5.47;2.63;;;;;;;;;;5013426;28;20441;-77
2023/04/30 06:38:48;;;;;;;6.53;2.30;;;;;;;;;;5012840;28;20054;-77
2023/04/30 06:41:15;;;;;;;5.43;2.45;;;;;;;;;;5014076;28;20064;-77
2023/04/30 06:43:41;;;;;;;6.40;2.50;;;;;;;;;;5013969;28;20036;-77
2023/04/30 06:46:07;;;;;;;8.23;2.38;;;;;;;;;;5013618;28;20053;-77
2023/04/30 06:48:33;;;;;;;3.65;2.55;;;;;;;;;;4995957;28;20116;-77
2023/04/30 06:50:59;;;;;;;5.80;2.53;;;;;;;;;;5013443;28;20401;-77
2023/04/30 06:53:25;;;;;;;4.18;2.20;;;;;;;;;;4996122;28;20081;-77
2023/04/30 06:55:51;;;;;;;6.82;2.58;;;;;;;;;;5013495;28;20030;-77
2023/04/30 06:58:18;;;;;;;8.15;2.42;;;;;;;;;;5013413;28;20101;-77
2023/04/30 07:00:44;;;;;;;7.45;2.20;;;;;;;;;;5013788;28;20030;-78
2023/04/30 07:03:11;;;;;;;5.90;2.20;;;;;;;;;;5013384;28;20058;-78
2023/04/30 07:05:37;;;;;;;7.25;2.35;;;;;;;;;;5013673;28;20101;-77
2023/04/30 07:08:04;;;;;;;8.60;2.70;;;;;;;;;;5013524;28;20045;-77
2023/04/30 07:10:30;;;;;;;6.38;2.30;;;;;;;;;;5013267;28;20456;-77
2023/04/30 07:12:56;;;;;;;6.93;2.10;;;;;;;;;;5013187;28;20460;-78
2023/04/30 07:15:22;;;;;;;6.30;2.00;;;;;;;;;;5013172;28;20030;-77
2023/04/30 07:17:48;;;;;;;7.28;2.25;;;;;;;;;;5013023;28;20034;-77
2023/04/30 07:20:14;;;;;;;7.28;1.95;;;;;;;;;;5013015;28;20033;-77
2023/04/30 07:22:43;;;;;;;5.47;1.80;;;;;;;;;;5013223;28;20112;-77
2023/04/30 07:25:10;;;;;;;5.43;1.90;;;;;;;;;;5013287;28;20018;-77
2023/04/30 07:27:36;;;;;;;6.20;2.25;;;;;;;;;;5012810;28;20014;-78
2023/04/30 07:30:02;;;;;;;6.75;2.25;;;;;;;;;;5012901;28;20362;-78
2023/04/30 07:32:28;;;;;;;5.30;2.13;;;;;;;;;;5012823;28;20473;-78
2023/04/30 07:34:54;;;;;;;4.57;1.77;;;;;;;;;;5013256;28;20472;-78
2023/04/30 07:37:20;;;;;;;5.10;2.00;;;;;;;;;;5011651;28;20026;-78
2023/04/30 07:39:47;;;;;;;4.95;1.63;;;;;;;;;;5012776;28;20552;-78
2023/04/30 07:42:13;;;;;;;3.72;1.88;;;;;;;;;;5012978;28;20038;-78
2023/04/30 07:44:40;;;;;;;5.78;2.13;;;;;;;;;;5012782;28;20041;-78
2023/04/30 07:47:06;;;;;;;6.88;2.17;;;;;;;;;;5012562;28;20076;-78
2023/04/30 07:49:32;;;;;;;3.92;1.80;;;;;;;;;;5013372;28;20018;-78
2023/04/30 07:51:59;;;;;;;4.57;1.88;;;;;;;;;;5012677;28;20449;-78
2023/04/30 07:54:25;;;;;;;7.10;2.08;;;;;;;;;;5013140;28;20369;-77
2023/04/30 07:56:51;;;;;;;4.15;2.03;;;;;;;;;;5020693;28;20029;-78
2023/04/30 07:59:17;;;;;;;5.43;1.73;;;;;;;;;;5032516;28;20036;-78
2023/04/30 08:01:44;;;;;;;4.20;1.80;;;;;;;;;;5032556;28;20033;-78
2023/04/30 08:04:10;;;;;;;5.32;1.90;;;;;;;;;;5032423;28;20013;-78
2023/04/30 08:06:36;;;;;;;6.22;2.38;;;;;;;;;;5032732;28;20048;-78
2023/04/30 08:09:02;;;;;;;5.97;2.13;;;;;;;;;;5032313;28;20033;-78
2023/04/30 08:11:28;;;;;;;5.20;2.38;;;;;;;;;;5032582;28;20032;-78
2023/04/30 08:13:54;;;;;;;7.95;2.33;;;;;;;;;;5032422;28;20025;-78
2023/04/30 08:16:20;;;;;;;5.85;2.72;;;;;;;;;;5032218;28;20026;-78
2023/04/30 08:18:48;;;;;;;4.82;2.30;;;;;;;;;;5032139;28;20104;-77
2023/04/30 08:21:14;;;;;;;6.65;2.70;;;;;;;;;;5032455;28;20018;-77
2023/04/30 08:23:40;;;;;;;5.70;2.40;;;;;;;;;;5032109;28;20037;-78
2023/04/30 08:26:06;;;;;;;7.35;2.40;;;;;;;;;;5014339;28;20079;-78
2023/04/30 08:28:32;;;;;;;8.27;2.90;;;;;;;;;;5032432;28;20026;-77
2023/04/30 08:30:58;;;;;;;5.68;3.00;;;;;;;;;;5018398;28;20057;-78
2023/04/30 08:33:24;;;;;;;5.38;2.40;;;;;;;;;;5012577;28;20030;-78
2023/04/30 08:35:50;;;;;;;7.28;2.60;;;;;;;;;;5012390;28;20037;-77
2023/04/30 08:38:17;;;;;;;9.20;2.53;;;;;;;;;;5011057;28;20081;-78
2023/04/30 08:40:47;;;;;;;8.10;1.95;;;;;;;;;;5012522;28;20029;-78
2023/04/30 08:43:14;;;;;;;5.00;1.95;;;;;;;;;;5012159;28;20083;-77
2023/04/30 08:45:40;;;;;;;7.53;2.08;;;;;;;;;;5012305;28;20047;-78
2023/04/30 08:48:10;;;;;;;5.15;2.33;;;;;;;;;;5012526;28;20029;-78
2023/04/30 08:50:36;;;;;;;6.28;1.88;;;;;;;;;;5012399;28;20022;-78
2023/04/30 08:53:02;;;;;;;4.45;1.50;;;;;;;;;;5024068;28;20082;-77
2023/04/30 08:55:28;;;;;;;4.65;1.60;;;;;;;;;;5032313;28;20025;-78
2023/04/30 08:57:54;;;;;;;4.85;1.50;;;;;;;;;;5031729;28;20025;-78
2023/04/30 09:00:20;;;;;;;3.72;1.50;;;;;;;;;;5017507;28;20091;-78
2023/04/30 09:02:49;;;;;;;4.25;1.60;;;;;;;;;;5035297;28;20025;-78
2023/04/30 09:05:18;;;;;;;6.07;1.60;;;;;;;;;;5035261;28;20025;-78
2023/04/30 09:07:46;;;;;;;3.08;1.65;;;;;;;;;;5035422;28;20033;-78
2023/04/30 09:10:19;;;;;;;7.72;1.73;;;;;;;;;;5016278;28;20641;-78
2023/04/30 09:12:58;;;;;;;6.00;1.75;;;;;;;;;;5015429;28;20412;-78
2023/04/30 09:15:24;;;;;;;5.03;1.90;;;;;;;;;;5015815;28;20664;-78
2023/04/30 09:17:50;;;;;;;5.60;1.60;;;;;;;;;;5015581;28;20030;-78
2023/04/30 09:20:17;;;;;;;4.40;1.50;;;;;;;;;;5015124;28;20377;-78
2023/04/30 09:22:43;;;;;;;4.85;1.50;;;;;;;;;;5015296;28;20454;-78
2023/04/30 09:25:10;;;;;;;3.67;1.77;;;;;;;;;;5015196;28;20193;-78
2023/04/30 09:27:36;;;;;;;5.80;1.70;;;;;;;;;;5018539;28;20101;-78
2023/04/30 09:30:03;;;;;;;3.95;1.52;;;;;;;;;;5034803;28;20412;-78
2023/04/30 09:32:29;;;;;;;4.20;1.60;;;;;;;;;;5034713;28;20535;-78
2023/04/30 09:34:55;;;;;;;3.47;1.60;;;;;;;;;;5035166;28;20045;-78
2023/04/30 09:37:21;;;;;;;3.53;1.40;;;;;;;;;;5034602;28;20022;-78
2023/04/30 09:39:58;;;;;;;4.15;1.33;;;;;;;;;;5032037;28;20132;-77
2023/04/30 09:42:24;;;;;;;4.40;1.45;;;;;;;;;;5034743;28;20041;-78
2023/04/30 09:44:53;;;;;;;5.30;1.60;;;;;;;;;;5034533;28;20079;-78
2023/04/30 09:47:19;;;;;;;4.60;2.17;;;;;;;;;;5034650;28;20467;-78
2023/04/30 09:49:52;;;;;;;6.50;1.73;;;;;;;;;;5034473;28;20104;-78
2023/04/30 09:52:18;;;;;;;5.35;1.55;;;;;;;;;;5034527;28;20053;-78
2023/04/30 09:54:45;;;;;;;4.90;1.80;;;;;;;;;;5034247;28;20056;-77
2023/04/30 09:57:12;;;;;;;5.05;1.70;;;;;;;;;;5035243;28;20524;-78
2023/04/30 09:59:41;;;;;;;3.60;1.80;;;;;;;;;;5035515;28;20037;-79
2023/04/30 10:02:07;;;;;;;3.92;1.70;;;;;;;;;;5034767;28;20384;-78
2023/04/30 10:04:35;;;;;;;3.88;1.52;;;;;;;;;;5034127;28;20091;-78
2023/04/30 10:07:06;;;;;;;5.07;1.98;;;;;;;;;;5034281;28;20151;-77
2023/04/30 10:09:47;;;;;;;4.93;1.75;;;;;;;;;;5034275;28;20140;-78
2023/04/30 10:12:14;;;;;;;6.85;1.80;;;;;;;;;;5033681;28;20032;-78
2023/04/30 10:14:44;;;;;;;4.10;1.52;;;;;;;;;;5033898;28;20018;-77
2023/04/30 10:17:10;;;;;;;;;;;;;;;;;;5016426;28;20030;-78
2023/04/30 10:19:40;;;;;;;5.15;1.83;;;;;;;;;;5033830;28;19905;-78
2023/04/30 10:22:07;;;;;;;4.30;2.00;;;;;;;;;;5034319;28;20025;-77
2023/04/30 10:24:34;;;;;;;3.05;1.77;;;;;;;;;;5015781;28;20022;-77
2023/04/30 10:27:07;;;;;;;4.78;1.92;;;;;;;;;;5033517;28;20049;-78
2023/04/30 10:29:33;;;;;;;6.43;2.40;;;;;;;;;;5033321;28;20029;-78
2023/04/30 10:32:00;;;;;;;3.83;1.90;;;;;;;;;;5033932;28;20025;-78
2023/04/30 10:34:44;;;;;;;4.75;2.17;;;;;;;;;;5033969;28;20105;-78
2023/04/30 10:37:29;;;;;;;6.55;2.20;;;;;;;;;;5034089;28;20034;-77
2023/04/30 10:39:55;;;;;;;5.45;1.85;;;;;;;;;;5013326;28;20136;-78
2023/04/30 10:42:21;;;;;;;2.83;1.77;;;;;;;;;;5015790;28;20037;-79
2023/04/30 10:44:48;;;;;;;4.00;2.17;;;;;;;;;;5015637;28;20088;-78
2023/04/30 10:47:18;;;;;;;6.38;2.30;;;;;;;;;;5013758;28;20030;-78
2023/04/30 10:49:48;;;;;;;3.45;1.77;;;;;;;;;;5013964;28;20022;-78
2023/04/30 10:52:25;;;;;;;3.92;2.00;;;;;;;;;;5013567;28;20519;-78
2023/04/30 10:54:51;;;;;;;3.97;2.28;;;;;;;;;;4995881;28;20045;-77
2023/04/30 10:57:18;;;;;;;3.42;2.10;;;;;;;;;;5013637;28;20062;-77
2023/04/30 10:59:51;;;;;;;3.65;2.15;;;;;;;;;;5013523;28;20046;-78
2023/04/30 11:02:17;;;;;;;4.65;2.42;;;;;;;;;;5028019;28;20098;-78
2023/04/30 11:05:02;;;;;;;4.00;2.15;;;;;;;;;;5033196;28;20029;-78
2023/04/30 11:07:28;;;;;;;4.07;2.13;;;;;;;;;;5033127;28;20037;-78
2023/04/30 11:09:56;;;;;;;6.03;2.38;;;;;;;;;;5033054;28;20018;-78
2023/04/30 11:12:27;;;;;;;3.70;2.20;;;;;;;;;;5033023;28;20460;-78
2023/04/30 11:14:53;;;;;;;5.57;2.50;;;;;;;;;;5033146;28;20017;-78
2023/04/30 11:17:23;;;;;;;5.13;2.20;;;;;;;;;;5033011;28;20029;-78
2023/04/30 11:19:49;;;;;;;;;;;;;;;;;;5033437;28;20029;-78
2023/04/30 11:22:16;;;;;;;6.00;2.20;;;;;;;;;;5031918;28;19959;-78
2023/04/30 11:25:13;;;;;;;5.10;2.25;;;;;;;;;;5033052;28;20022;-78
2023/04/30 11:27:43;;;;;;;2.72;1.90;;;;;;;;;;5021392;28;20041;-78
2023/04/30 11:30:16;;;;;;;5.55;2.58;;;;;;;;;;5032796;28;20064;-78
2023/04/30 11:32:46;;;;;;;4.00;1.90;;;;;;;;;;5032680;28;20029;-78
2023/04/30 11:35:13;;;;;;;3.67;2.33;;;;;;;;;;5014900;28;20033;-78
2023/04/30 11:37:42;;;;;;;3.95;2.30;;;;;;;;;;5032455;28;20023;-78
2023/04/30 11:40:15;;;;;;;6.07;2.25;;;;;;;;;;5031203;28;20128;-78
2023/04/30 11:42:47;;;;;;;4.65;2.60;;;;;;;;;;5032519;28;20030;-77
2023/04/30 11:45:19;;;;;;;5.43;2.80;;;;;;;;;;5032873;28;20017;-78
2023/04/30 11:47:46;;;;;;;4.93;2.65;;;;;;;;;;5032856;28;20101;-78
2023/04/30 11:50:13;;;;;;;3.80;1.90;;;;;;;;;;5032674;28;20029;-78
2023/04/30 11:52:40;;;;;;;5.07;2.13;;;;;;;;;;5032431;28;20495;-78
2023/04/30 11:55:26;;;;;;;4.13;2.28;;;;;;;;;;5032412;28;20109;-78
2023/04/30 11:57:54;;;;;;;3.17;2.17;;;;;;;;;;5032368;28;20034;-78
2023/04/30 12:00:21;;;;;;;3.75;1.95;;;;;;;;;;5032838;28;20017;-78
2023/04/30 12:02:48;;;;;;;4.10;2.20;;;;;;;;;;5032576;28;20034;-78
2023/04/30 12:05:15;;;;;;;6.13;3.00;;;;;;;;;;5032602;28;20025;-78
2023/04/30 12:07:56;;;;;;;6.13;2.60;;;;;;;;;;5032656;28;20452;-78
2023/04/30 12:10:22;;;;;;;3.92;2.30;;;;;;;;;;5032501;28;20033;-78
2023/04/30 12:12:50;;;;;;;4.50;2.17;;;;;;;;;;5032559;28;20026;-78
2023/04/30 12:15:16;;;;;;;3.83;2.10;;;;;;;;;;5032461;28;20468;-78
2023/04/30 12:17:43;;;;;;;5.50;1.90;;;;;;;;;;5032431;28;20028;-78
2023/04/30 12:20:10;;;;;;;2.97;2.00;;;;;;;;;;5032552;28;20143;-78
2023/04/30 12:22:39;;;;;;;3.78;1.90;;;;;;;;;;5032250;28;20030;-78
2023/04/30 12:25:06;;;;;;;3.87;2.03;;;;;;;;;;5032685;28;20025;-78
2023/04/30 12:27:34;;;;;;;2.95;1.60;;;;;;;;;;5032552;28;20024;-78
2023/04/30 12:30:09;;;;;;;3.83;1.70;;;;;;;;;;5032621;28;20025;-78
2023/04/30 12:32:42;;;;;;;3.35;2.03;;;;;;;;;;5033103;28;20121;-78
2023/04/30 12:35:12;;;;;;;4.93;1.60;;;;;;;;;;5036773;28;20091;-78
2023/04/30 12:37:42;;;;;;;3.63;1.90;;;;;;;;;;5037517;28;20033;-78
2023/04/30 12:40:08;;;;;;;2.67;1.67;;;;;;;;;;5036842;28;20045;-79
2023/04/30 12:42:35;;;;;;;2.95;1.67;;;;;;;;;;5038260;28;20037;-78
2023/04/30 12:45:01;;;;;;;2.55;1.55;;;;;;;;;;5038832;28;20068;-78
2023/04/30 12:47:27;;;;;;;4.05;1.50;;;;;;;;;;5022812;28;20037;-78
2023/04/30 12:50:00;;;;;;;6.85;1.90;;;;;;;;;;5019660;28;20033;-78
2023/04/30 12:52:26;;;;;;;3.22;1.50;;;;;;;;;;5019450;28;20062;-78
2023/04/30 12:54:53;;;;;;;2.92;2.03;;;;;;;;;;5029614;28;20484;-78
2023/04/30 12:57:20;;;;;;;3.88;1.67;;;;;;;;;;5036790;28;20026;-78
2023/04/30 12:59:49;;;;;;;2.80;1.40;;;;;;;;;;5039076;28;20022;-78
2023/04/30 13:02:15;;;;;;;2.07;1.33;;;;;;;;;;5037319;28;20091;-78
2023/04/30 13:04:41;;;;;;;4.03;1.80;;;;;;;;;;5038481;28;20104;-79
2023/04/30 13:07:07;;;;;;;3.50;1.77;;;;;;;;;;5040188;28;20115;-79
2023/04/30 13:09:34;;;;;;;3.42;1.42;;;;;;;;;;5041053;28;20484;-79
2023/04/30 13:12:00;;;;;;;2.78;1.63;;;;;;;;;;5040496;28;20041;-79
2023/04/30 13:14:26;;;;;;;2.70;1.60;;;;;;;;;;5041284;28;20024;-79
2023/04/30 13:16:52;;;;;;;2.90;1.60;;;;;;;;;;5039195;28;20026;-79
2023/04/30 13:19:21;;;;;;;4.45;1.90;;;;;;;;;;5040577;28;20113;-78
2023/04/30 13:21:47;;;;;;;4.05;1.63;;;;;;;;;;5020951;28;20025;-78
2023/04/30 13:24:13;;;;;;;3.30;1.52;;;;;;;;;;5026798;28;20026;-79
2023/04/30 13:26:39;;;;;;;2.75;1.80;;;;;;;;;;5026994;28;20037;-79
2023/04/30 13:29:06;;;;;;;2.65;1.50;;;;;;;;;;5038684;28;20021;-79
2023/04/30 13:31:35;;;;;;;4.10;1.80;;;;;;;;;;5036803;28;20026;-78
2023/04/30 13:34:08;;;;;;;3.93;1.80;;;;;;;;;;5038470;28;20026;-78
2023/04/30 13:36:35;;;;;;;1.98;1.77;;;;;;;;;;5037778;28;20034;-78
2023/04/30 13:39:01;;;;;;;3.50;1.77;;;;;;;;;;5038866;28;20049;-78
2023/04/30 13:41:27;;;;;;;3.17;1.52;;;;;;;;;;5021958;28;20032;-79
2023/04/30 13:43:53;;;;;;;7.53;1.88;;;;;;;;;;5039848;28;20034;-78
2023/04/30 13:46:19;;;;;;;1.80;1.30;;;;;;;;;;5037979;28;20234;-79
2023/04/30 13:48:48;;;;;;;2.65;1.25;;;;;;;;;;5032307;28;20030;-78
2023/04/30 13:51:14;;;;;;;3.08;1.30;;;;;;;;;;5031884;28;20061;-78
2023/04/30 13:53:40;;;;;;;2.08;1.48;;;;;;;;;;5040273;28;20037;-78
2023/04/30 13:56:06;;;;;;;3.03;1.48;;;;;;;;;;5012466;28;20030;-78
2023/04/30 13:58:32;;;;;;;2.47;1.30;;;;;;;;;;5025743;28;20061;-79
2023/04/30 14:00:58;;;;;;;3.10;1.48;;;;;;;;;;5033441;28;20033;-79
2023/04/30 14:03:24;;;;;;;3.03;1.30;;;;;;;;;;5035747;28;20133;-78
2023/04/30 14:05:50;;;;;;;2.78;1.40;;;;;;;;;;5028609;28;20049;-78
2023/04/30 14:08:16;;;;;;;4.25;1.52;;;;;;;;;;5031979;28;20026;-79
2023/04/30 14:10:42;;;;;;;2.38;1.25;;;;;;;;;;5036406;28;20430;-78
2023/04/30 14:13:08;;;;;;;2.50;1.67;;;;;;;;;;5022615;28;20034;-79
2023/04/30 14:15:35;;;;;;;1.95;1.33;;;;;;;;;;5025446;28;20410;-78
2023/04/30 14:18:01;;;;;;;3.55;1.55;;;;;;;;;;5031865;28;20037;-78
2023/04/30 14:20:34;;;;;;;1.60;1.40;;;;;;;;;;5038685;28;20099;-78
2023/04/30 14:23:00;;;;;;;2.42;1.27;;;;;;;;;;5039752;28;20052;-78
2023/04/30 14:25:26;;;;;;;3.17;1.45;;;;;;;;;;5031457;28;20036;-78
2023/04/30 14:27:52;;;;;;;2.80;1.40;;;;;;;;;;5032902;28;20030;-78
2023/04/30 14:30:18;;;;;;;4.00;1.55;;;;;;;;;;5037950;28;20104;-78
2023/04/30 14:32:44;;;;;;;4.30;1.30;;;;;;;;;;5039545;28;20026;-78
2023/04/30 14:35:10;;;;;;;1.88;1.30;;;;;;;;;;5040642;28;20100;-79
2023/04/30 14:37:36;;;;;;;2.70;1.15;;;;;;;;;;5031822;28;20057;-78
2023/04/30 14:40:04;;;;;;;3.40;1.15;;;;;;;;;;5040965;28;20057;-78
2023/04/30 14:42:30;;;;;;;2.97;1.30;;;;;;;;;;5032205;28;20072;-78
2023/04/30 14:44:56;;;;;;;2.38;1.30;;;;;;;;;;5039875;28;20068;-78
2023/04/30 14:47:25;;;;;;;1.48;1.38;;;;;;;;;;5010275;28;20033;-78
2023/04/30 14:49:52;;;;;;;2.05;1.50;;;;;;;;;;5019492;28;20108;-78
2023/04/30 14:52:18;;;;;;;1.58;1.20;;;;;;;;;;5020061;28;20026;-78
2023/04/30 14:54:44;;;;;;;2.28;1.30;;;;;;;;;;5024527;28;20053;-78
2023/04/30 14:57:12;;;;;;;1.25;1.15;;;;;;;;;;5039033;28;20711;-78
2023/04/30 14:59:38;;;;;;;1.23;1.05;;;;;;;;;;5037816;28;20076;-78
2023/04/30 15:02:05;;;;;;;4.95;1.40;;;;;;;;;;5022799;28;20062;-78
2023/04/30 15:04:30;;;;;;;1.95;1.10;;;;;;;;;;5028539;28;20033;-78
2023/04/30 15:06:56;;;;;;;2.33;1.20;;;;;;;;;;5032568;28;20113;-77